createdAt,value
2023-07-26T00:01:57.253Z,7.90
2023-07-26T00:04:23.788Z,7.00
2023-07-26T00:06:50.317Z,7.05
2023-07-26T00:09:16.946Z,6.22
2023-07-26T00:11:43.478Z,9.45
2023-07-26T00:14:09.986Z,9.77
2023-07-26T00:16:36.668Z,8.88
2023-07-26T00:19:03.598Z,9.30
2023-07-26T00:21:30.162Z,8.10
2023-07-26T00:23:57.044Z,9.80
2023-07-26T00:26:23.634Z,5.70
2023-07-26T00:28:50.185Z,9.82
2023-07-26T00:31:16.961Z,5.18
2023-07-26T00:33:43.467Z,9.13
2023-07-26T00:36:10.576Z,7.05
2023-07-26T00:38:37.112Z,5.03
2023-07-26T00:41:03.625Z,10.30
2023-07-26T00:43:30.150Z,8.85
2023-07-26T00:45:56.730Z,5.03
2023-07-26T00:48:24.140Z,6.65
2023-07-26T00:50:50.727Z,6.25
2023-07-26T00:53:18.034Z,8.88
2023-07-26T00:55:46.223Z,4.85
2023-07-26T00:58:13.544Z,6.60
2023-07-26T01:00:44.266Z,7.80
2023-07-26T01:03:10.915Z,6.83
2023-07-26T01:09:28.709Z,9.95
2023-07-26T01:12:23.077Z,5.13
2023-07-26T01:14:58.081Z,5.72
2023-07-26T01:17:25.578Z,9.88
2023-07-26T01:19:52.987Z,6.07
2023-07-26T01:22:19.539Z,8.73
2023-07-26T01:24:46.037Z,6.97
2023-07-26T01:27:12.623Z,6.85
2023-07-26T01:29:39.271Z,8.93
2023-07-26T01:32:08.744Z,6.65
2023-07-26T01:34:35.821Z,9.98
2023-07-26T01:37:02.819Z,6.00
2023-07-26T01:39:30.111Z,9.77
2023-07-26T01:41:57.035Z,6.43
2023-07-26T01:44:23.731Z,5.68
2023-07-26T01:46:53.895Z,8.77
2023-07-26T01:49:23.052Z,11.82
2023-07-26T01:51:49.526Z,8.52
2023-07-26T01:54:16.780Z,7.97
2023-07-26T01:56:43.264Z,8.85
2023-07-26T01:59:10.737Z,5.95
2023-07-26T02:01:38.248Z,6.00
2023-07-26T02:04:04.966Z,9.70
2023-07-26T02:06:31.516Z,7.15
2023-07-26T02:08:58.138Z,6.80
2023-07-26T02:11:24.600Z,10.25
2023-07-26T02:13:51.075Z,8.98
2023-07-26T02:16:17.607Z,8.23
2023-07-26T02:18:44.588Z,4.68
2023-07-26T02:21:11.169Z,7.10
2023-07-26T02:23:37.694Z,5.82
2023-07-26T02:26:05.165Z,10.18
2023-07-26T02:28:31.654Z,8.30
2023-07-26T02:30:58.133Z,13.10
2023-07-26T02:33:24.633Z,5.72
2023-07-26T02:35:51.123Z,9.82
2023-07-26T02:38:17.606Z,9.63
2023-07-26T02:40:44.154Z,7.07
2023-07-26T02:43:10.643Z,10.27
2023-07-26T02:45:37.145Z,5.45
2023-07-26T02:48:03.979Z,10.15
2023-07-26T02:50:30.514Z,11.48
2023-07-26T02:52:56.967Z,7.97
2023-07-26T02:55:24.286Z,4.68
2023-07-26T02:57:50.765Z,7.88
2023-07-26T03:00:17.636Z,14.32
2023-07-26T03:02:44.286Z,9.18
2023-07-26T03:05:11.729Z,8.30
2023-07-26T03:07:38.257Z,17.20
2023-07-26T03:10:05.129Z,7.07
2023-07-26T03:12:31.595Z,7.78
2023-07-26T03:14:58.097Z,9.55
2023-07-26T03:17:24.660Z,7.97
2023-07-26T03:19:51.966Z,13.85
2023-07-26T03:22:18.550Z,5.60
2023-07-26T03:24:45.104Z,5.90
2023-07-26T03:27:11.881Z,7.25
2023-07-26T03:29:38.510Z,7.32
2023-07-26T03:32:05.431Z,7.53
2023-07-26T03:34:32.029Z,5.75
2023-07-26T03:36:58.849Z,10.90
2023-07-26T03:39:26.155Z,9.82
2023-07-26T03:41:52.772Z,9.90
2023-07-26T03:44:19.295Z,5.53
2023-07-26T03:46:45.860Z,9.95
2023-07-26T03:49:12.906Z,8.25
2023-07-26T03:51:39.455Z,14.38
2023-07-26T03:54:06.597Z,10.98
2023-07-26T03:56:33.273Z,13.55
2023-07-26T03:58:59.876Z,12.73
2023-07-26T04:01:27.031Z,7.53
2023-07-26T04:03:53.880Z,9.40
2023-07-26T04:06:20.692Z,7.43
2023-07-26T04:08:47.579Z,4.65
2023-07-26T04:11:14.182Z,14.63
2023-07-26T04:13:40.800Z,7.45
2023-07-26T04:16:27.553Z,13.50
2023-07-26T04:18:54.212Z,11.25
2023-07-26T04:21:21.009Z,7.60
2023-07-26T04:23:47.798Z,8.27
2023-07-26T04:26:14.478Z,10.27
2023-07-26T04:28:41.352Z,13.77
2023-07-26T04:31:07.958Z,8.13
2023-07-26T04:33:34.674Z,11.38
2023-07-26T04:36:01.300Z,11.05
2023-07-26T04:38:27.843Z,7.93
2023-07-26T04:40:54.445Z,12.73
2023-07-26T04:43:21.358Z,11.88
2023-07-26T04:45:51.728Z,29.35
2023-07-26T04:48:19.448Z,14.40
2023-07-26T04:50:47.540Z,13.57
2023-07-26T04:53:14.344Z,8.77
2023-07-26T04:55:48.130Z,11.05
2023-07-26T04:58:15.095Z,10.38
2023-07-26T05:00:42.273Z,11.50
2023-07-26T05:03:09.681Z,9.85
2023-07-26T05:05:36.887Z,12.43
2023-07-26T05:08:06.053Z,8.00
2023-07-26T05:10:32.977Z,13.68
2023-07-26T05:12:59.623Z,11.95
2023-07-26T05:15:26.355Z,11.55
2023-07-26T05:17:53.156Z,6.70
2023-07-26T05:20:20.002Z,9.20
2023-07-26T05:22:46.494Z,11.95
2023-07-26T05:25:12.981Z,13.23
2023-07-26T05:27:39.480Z,9.02
2023-07-26T05:30:06.689Z,13.07
2023-07-26T05:32:34.079Z,14.52
2023-07-26T05:35:00.662Z,5.63
2023-07-26T05:37:27.299Z,8.05
2023-07-26T05:39:53.840Z,10.95
2023-07-26T05:42:20.366Z,8.25
2023-07-26T05:44:46.886Z,12.07
2023-07-26T05:47:15.333Z,7.93
2023-07-26T05:49:43.665Z,9.77
2023-07-26T05:52:10.733Z,8.25
2023-07-26T05:54:37.849Z,6.80
2023-07-26T05:57:04.925Z,7.55
2023-07-26T05:59:31.825Z,11.35
2023-07-26T06:01:59.577Z,11.20
2023-07-26T06:04:26.388Z,9.82
2023-07-26T06:06:52.974Z,8.93
2023-07-26T06:09:23.779Z,9.77
2023-07-26T06:11:56.685Z,14.07
2023-07-26T06:14:26.296Z,11.55
2023-07-26T06:16:54.151Z,10.15
2023-07-26T06:19:20.903Z,10.23
2023-07-26T06:21:48.224Z,7.70
2023-07-26T06:24:14.813Z,11.80
2023-07-26T06:26:41.437Z,10.25
2023-07-26T06:29:08.021Z,5.30
2023-07-26T06:31:34.751Z,12.82
2023-07-26T06:34:01.693Z,8.65
2023-07-26T06:36:28.616Z,7.43
2023-07-26T06:38:55.247Z,13.43
2023-07-26T06:41:21.764Z,16.92
2023-07-26T06:43:48.360Z,10.50
2023-07-26T06:46:14.977Z,7.72
2023-07-26T06:48:43.858Z,9.07
2023-07-26T06:51:11.295Z,8.95
2023-07-26T06:53:38.003Z,12.15
2023-07-26T06:56:05.077Z,9.00
2023-07-26T06:58:31.637Z,6.13
2023-07-26T07:00:59.472Z,6.22
2023-07-26T07:03:26.101Z,8.82
2023-07-26T07:05:52.631Z,4.35
2023-07-26T07:08:19.157Z,4.93
2023-07-26T07:10:45.887Z,9.65
2023-07-26T07:13:12.408Z,10.00
2023-07-26T07:15:38.907Z,4.18
2023-07-26T07:18:15.364Z,6.15
2023-07-26T07:20:42.850Z,6.32
2023-07-26T07:23:10.451Z,6.03
2023-07-26T07:25:40.238Z,8.55
2023-07-26T07:28:06.855Z,5.90
2023-07-26T07:30:33.626Z,5.68
2023-07-26T07:33:00.331Z,3.90
2023-07-26T07:35:26.962Z,6.22
2023-07-26T07:37:53.425Z,11.80
2023-07-26T07:40:19.914Z,7.85
2023-07-26T07:42:46.368Z,10.80
2023-07-26T07:45:13.656Z,8.27
2023-07-26T07:47:40.177Z,7.00
2023-07-26T07:50:07.186Z,4.80
2023-07-26T07:52:34.014Z,3.53
2023-07-26T07:55:00.553Z,5.90
2023-07-26T07:57:27.888Z,12.88
2023-07-26T07:59:57.343Z,4.30
2023-07-26T08:02:24.358Z,6.50
2023-07-26T08:04:50.898Z,3.88
2023-07-26T08:07:18.251Z,5.50
2023-07-26T08:09:45.721Z,6.95
2023-07-26T08:12:12.292Z,5.30
2023-07-26T08:14:38.766Z,4.07
2023-07-26T08:17:06.037Z,6.68
2023-07-26T08:19:32.879Z,4.10
2023-07-26T08:21:59.424Z,6.22
2023-07-26T08:24:26.342Z,4.20
2023-07-26T08:26:53.667Z,3.58
2023-07-26T08:29:20.198Z,6.60
2023-07-26T08:31:46.690Z,4.70
2023-07-26T08:34:14.027Z,8.25
2023-07-26T08:36:40.524Z,3.25
2023-07-26T08:39:09.475Z,4.55
2023-07-26T08:41:39.226Z,8.48
2023-07-26T08:44:08.114Z,3.53
2023-07-26T08:46:34.954Z,7.15
2023-07-26T08:49:01.627Z,3.15
2023-07-26T08:51:29.798Z,6.82
2023-07-26T08:53:58.802Z,7.32
2023-07-26T08:56:28.321Z,8.93
2023-07-26T08:58:54.825Z,6.70
2023-07-26T09:01:23.104Z,3.70
2023-07-26T09:03:49.983Z,3.97
2023-07-26T09:06:16.568Z,4.55
2023-07-26T09:08:43.986Z,3.40
2023-07-26T09:11:24.887Z,5.50
2023-07-26T09:14:00.183Z,8.80
2023-07-26T09:16:33.339Z,6.28
2023-07-26T09:19:00.563Z,5.20
2023-07-26T09:21:32.885Z,4.03
2023-07-26T09:24:00.610Z,5.43
2023-07-26T09:26:38.493Z,2.25
2023-07-26T09:29:16.689Z,3.40
2023-07-26T09:31:44.684Z,7.57
2023-07-26T09:34:14.670Z,8.30
2023-07-26T09:36:51.617Z,5.82
2023-07-26T09:39:30.553Z,4.13
2023-07-26T09:42:10.065Z,6.30
2023-07-26T09:44:38.341Z,7.32
2023-07-26T09:47:05.925Z,5.15
2023-07-26T09:49:32.972Z,6.93
2023-07-26T09:54:34.398Z,3.88
2023-07-26T09:57:02.730Z,5.03
2023-07-26T09:59:31.382Z,3.15
2023-07-26T10:02:01.687Z,1.60
2023-07-26T10:04:50.277Z,5.00
2023-07-26T10:07:17.744Z,2.95
2023-07-26T10:09:46.056Z,5.05
2023-07-26T10:12:13.517Z,2.67
2023-07-26T10:14:40.950Z,3.72
2023-07-26T10:17:08.117Z,7.20
2023-07-26T10:19:37.993Z,3.30
2023-07-26T10:22:06.660Z,6.35
2023-07-26T10:24:37.604Z,5.93
2023-07-26T10:27:05.364Z,3.67
2023-07-26T10:29:32.184Z,2.25
2023-07-26T10:32:07.528Z,2.47
2023-07-26T10:34:35.022Z,2.85
2023-07-26T10:37:14.962Z,4.72
2023-07-26T10:39:41.520Z,2.78
2023-07-26T10:42:22.955Z,4.57
2023-07-26T10:44:49.618Z,3.63
2023-07-26T10:47:16.243Z,7.57
2023-07-26T10:49:47.941Z,4.07
2023-07-26T10:52:14.690Z,5.85
2023-07-26T10:54:43.771Z,10.27
2023-07-26T10:57:22.592Z,4.80
2023-07-26T11:00:07.555Z,5.65
2023-07-26T11:02:43.527Z,8.07
2023-07-26T11:05:12.202Z,5.07
2023-07-26T11:08:01.665Z,7.50
2023-07-26T11:10:34.047Z,6.93
2023-07-26T11:13:17.970Z,4.10
2023-07-26T11:16:13.805Z,5.05
2023-07-26T11:18:43.360Z,5.78
2023-07-26T11:21:16.539Z,6.30
2023-07-26T11:23:43.422Z,7.15
2023-07-26T11:26:09.925Z,6.45
2023-07-26T11:28:44.490Z,8.90
2023-07-26T11:31:19.861Z,10.07
2023-07-26T11:33:46.470Z,12.35
2023-07-26T11:36:22.984Z,5.70
2023-07-26T11:38:49.763Z,5.85
2023-07-26T11:41:20.287Z,5.07
2023-07-26T11:44:04.152Z,7.60
2023-07-26T11:46:31.263Z,5.80
2023-07-26T11:49:01.018Z,3.95
2023-07-26T11:51:49.028Z,3.05
2023-07-26T11:54:16.159Z,4.00
2023-07-26T11:56:43.951Z,5.07
2023-07-26T11:59:12.019Z,3.92
2023-07-26T12:01:39.327Z,6.38
2023-07-26T12:04:13.290Z,4.90
2023-07-26T12:06:41.572Z,10.68
2023-07-26T12:09:11.602Z,6.22
2023-07-26T12:11:52.260Z,8.45
2023-07-26T12:14:21.345Z,4.65
2023-07-26T12:16:52.612Z,12.70
2023-07-26T12:19:25.046Z,5.65
2023-07-26T12:21:52.548Z,4.65
2023-07-26T12:24:19.629Z,6.53
2023-07-26T12:26:49.113Z,3.38
2023-07-26T12:29:16.806Z,2.60
2023-07-26T12:31:43.430Z,5.70
2023-07-26T12:34:12.001Z,8.48
2023-07-26T12:36:38.439Z,2.78
2023-07-26T12:39:09.654Z,5.03
2023-07-26T12:41:39.589Z,10.05
2023-07-26T12:46:55.017Z,3.22
2023-07-26T12:49:21.732Z,4.03
2023-07-26T12:51:50.055Z,4.00
2023-07-26T12:54:16.957Z,2.33
2023-07-26T12:56:43.505Z,5.72
2023-07-26T12:59:11.194Z,3.75
2023-07-26T13:01:38.846Z,5.88
2023-07-26T13:04:06.917Z,4.25
2023-07-26T13:06:33.929Z,2.13
2023-07-26T13:09:01.187Z,2.70
2023-07-26T13:11:27.692Z,3.45
2023-07-26T13:13:54.299Z,2.95
2023-07-26T13:16:21.939Z,3.65
2023-07-26T13:18:48.649Z,4.25
2023-07-26T13:21:15.152Z,1.50
2023-07-26T13:23:41.675Z,3.13
2023-07-26T13:26:08.444Z,2.58
2023-07-26T13:28:35.007Z,5.28
2023-07-26T13:31:01.496Z,5.63
2023-07-26T13:33:28.349Z,2.88
2023-07-26T13:36:06.562Z,2.47
2023-07-26T13:38:33.117Z,2.25
2023-07-26T13:40:59.633Z,3.35
2023-07-26T13:43:26.890Z,1.60
2023-07-26T13:45:53.484Z,3.63
2023-07-26T13:48:20.149Z,7.25
2023-07-26T13:50:47.675Z,4.05
2023-07-26T13:53:14.212Z,5.18
2023-07-26T13:55:41.482Z,3.55
2023-07-26T13:58:07.994Z,4.47
2023-07-26T14:00:34.553Z,5.63
2023-07-26T14:03:01.122Z,7.28
2023-07-26T14:05:27.834Z,4.20
2023-07-26T14:07:55.116Z,6.47
2023-07-26T14:10:21.592Z,9.30
2023-07-26T14:12:48.129Z,3.22
2023-07-26T14:15:17.955Z,3.50
2023-07-26T14:17:45.601Z,3.72
2023-07-26T14:20:12.392Z,5.15
2023-07-26T14:22:38.980Z,3.08
2023-07-26T14:25:10.221Z,2.95
2023-07-26T14:27:36.974Z,3.50
2023-07-26T14:30:03.970Z,2.78
2023-07-26T14:32:31.435Z,2.63
2023-07-26T14:34:58.005Z,2.05
2023-07-26T14:37:24.473Z,2.30
2023-07-26T14:39:51.122Z,6.90
2023-07-26T14:42:17.695Z,6.85
2023-07-26T14:44:44.266Z,4.40
2023-07-26T14:47:10.839Z,2.17
2023-07-26T14:49:43.606Z,3.13
2023-07-26T14:52:16.829Z,2.63
2023-07-26T14:54:43.299Z,2.30
2023-07-26T14:57:14.406Z,2.58
2023-07-26T14:59:43.281Z,3.30
2023-07-26T15:02:11.450Z,5.78
2023-07-26T15:04:38.048Z,4.85
2023-07-26T15:07:05.193Z,2.85
2023-07-26T15:09:31.740Z,2.88
2023-07-26T15:11:58.881Z,3.97
2023-07-26T15:14:25.340Z,2.22
2023-07-26T15:16:51.875Z,3.15
2023-07-26T15:19:18.779Z,1.98
2023-07-26T15:21:45.395Z,4.90
2023-07-26T15:24:12.742Z,4.47
2023-07-26T15:26:39.211Z,8.27
2023-07-26T15:29:05.746Z,2.35
2023-07-26T15:31:32.409Z,1.65
2023-07-26T15:33:59.946Z,2.08
2023-07-26T15:36:26.637Z,1.73
2023-07-26T15:41:19.787Z,1.17
2023-07-26T15:43:47.897Z,1.55
2023-07-26T15:48:44.326Z,2.67
2023-07-26T15:51:11.633Z,2.40
2023-07-26T15:53:38.253Z,5.05
2023-07-26T15:56:05.200Z,3.50
2023-07-26T15:58:32.267Z,1.80
2023-07-26T16:00:59.008Z,2.15
2023-07-26T16:08:53.883Z,2.47
2023-07-26T16:11:11.363Z,2.00
2023-07-26T16:13:38.066Z,2.15
2023-07-26T16:18:35.086Z,2.45
2023-07-26T16:23:32.217Z,2.35
2023-07-26T16:25:58.785Z,2.63
2023-07-26T16:28:25.309Z,2.47
2023-07-26T16:30:51.851Z,2.38
2023-07-26T16:33:18.512Z,2.65
2023-07-26T16:35:45.047Z,2.55
2023-07-26T16:38:11.596Z,2.25
2023-07-26T16:40:39.788Z,2.90
2023-07-26T16:43:06.326Z,2.92
2023-07-26T16:45:32.840Z,2.85
2023-07-26T16:48:01.386Z,2.65
2023-07-26T16:50:27.939Z,2.28
2023-07-26T16:52:54.484Z,4.78
2023-07-26T16:55:21.394Z,1.98
2023-07-26T16:57:48.788Z,7.25
2023-07-26T17:00:15.497Z,3.85
2023-07-26T17:02:43.086Z,2.28
2023-07-26T17:05:09.728Z,2.55
2023-07-26T17:07:36.324Z,2.28
2023-07-26T17:10:02.887Z,4.15
2023-07-26T17:12:29.394Z,4.60
2023-07-26T17:14:55.948Z,3.60
2023-07-26T17:17:22.416Z,2.53
2023-07-26T17:19:49.068Z,4.05
2023-07-26T17:22:15.565Z,3.53
2023-07-26T17:24:42.103Z,3.10
2023-07-26T17:27:08.616Z,2.38
2023-07-26T17:29:35.158Z,10.48
2023-07-26T17:32:01.767Z,4.15
2023-07-26T17:34:28.270Z,3.63
2023-07-26T17:36:55.046Z,3.08
2023-07-26T17:39:24.112Z,5.28
2023-07-26T17:41:51.373Z,1.65
2023-07-26T17:44:17.902Z,2.15
2023-07-26T17:46:45.005Z,6.00
2023-07-26T17:49:11.508Z,3.35
2023-07-26T17:51:38.002Z,5.15
2023-07-26T17:54:04.691Z,4.78
2023-07-26T17:56:32.124Z,3.92
2023-07-26T17:58:58.853Z,3.75
2023-07-26T18:01:25.546Z,2.53
2023-07-26T18:03:54.659Z,3.90
2023-07-26T18:06:21.315Z,4.68
2023-07-26T18:08:47.875Z,5.35
2023-07-26T18:11:16.181Z,4.00
2023-07-26T18:13:42.932Z,3.45
2023-07-26T18:16:11.465Z,3.17
2023-07-26T18:18:38.413Z,4.60
2023-07-26T18:21:07.286Z,4.75
2023-07-26T18:23:35.724Z,3.40
2023-07-26T18:26:02.436Z,2.47
2023-07-26T18:28:29.035Z,1.90
2023-07-26T18:31:15.384Z,4.97
2023-07-26T18:33:44.857Z,3.10
2023-07-26T18:36:14.944Z,4.03
2023-07-26T18:38:41.555Z,3.08
2023-07-26T18:41:08.114Z,4.30
2023-07-26T18:43:35.510Z,4.18
2023-07-26T18:46:01.970Z,2.70
2023-07-26T18:48:29.205Z,5.07
2023-07-26T18:50:55.725Z,3.72
2023-07-26T18:53:22.378Z,3.60
2023-07-26T18:55:49.050Z,2.78
2023-07-26T18:58:16.059Z,5.53
2023-07-26T19:00:42.599Z,4.13
2023-07-26T19:03:09.269Z,5.93
2023-07-26T19:05:40.018Z,3.65
2023-07-26T19:08:07.922Z,3.23
2023-07-26T19:10:39.651Z,4.22
2023-07-26T19:13:06.883Z,5.28
2023-07-26T19:15:33.363Z,6.60
2023-07-26T19:18:00.409Z,2.60
2023-07-26T19:20:30.327Z,4.13
2023-07-26T19:22:57.048Z,3.10
2023-07-26T19:25:23.572Z,6.15
2023-07-26T19:27:50.047Z,6.20
2023-07-26T19:30:16.877Z,4.60
2023-07-26T19:32:44.165Z,3.97
2023-07-26T19:35:11.339Z,3.22
2023-07-26T19:37:39.366Z,3.40
2023-07-26T19:40:06.590Z,4.88
2023-07-26T19:42:34.489Z,2.35
2023-07-26T19:45:00.985Z,5.47
2023-07-26T19:47:27.552Z,4.20
2023-07-26T19:49:54.171Z,4.88
2023-07-26T19:52:20.670Z,3.33
2023-07-26T19:54:47.164Z,4.13
2023-07-26T19:57:14.034Z,4.95
2023-07-26T19:59:40.574Z,4.68
2023-07-26T20:02:07.391Z,5.55
2023-07-26T20:04:36.019Z,3.40
2023-07-26T20:07:02.656Z,3.17
2023-07-26T20:09:29.278Z,3.33
2023-07-26T20:11:58.166Z,2.95
2023-07-26T20:14:24.700Z,2.53
2023-07-26T20:16:51.290Z,3.72
2023-07-26T20:19:17.894Z,3.80
2023-07-26T20:21:44.525Z,4.53
2023-07-26T20:24:10.982Z,3.97
2023-07-26T20:26:37.508Z,4.40
2023-07-26T20:29:04.060Z,3.00
2023-07-26T20:31:30.561Z,3.53
2023-07-26T20:33:57.200Z,5.25
2023-07-26T20:36:23.646Z,3.55
2023-07-26T20:38:50.124Z,2.90
2023-07-26T20:41:16.666Z,2.40
2023-07-26T20:43:43.161Z,2.97
2023-07-26T20:46:09.747Z,5.55
2023-07-26T20:48:36.312Z,3.40
2023-07-26T20:51:05.850Z,3.72
2023-07-26T20:53:32.489Z,4.65
2023-07-26T20:56:01.240Z,3.95
2023-07-26T20:58:28.008Z,3.08
2023-07-26T21:00:54.545Z,3.15
2023-07-26T21:03:21.219Z,3.90
2023-07-26T21:05:49.350Z,3.97
2023-07-26T21:08:17.438Z,2.80
2023-07-26T21:10:43.917Z,2.22
2023-07-26T21:13:10.440Z,2.38
2023-07-26T21:15:39.189Z,4.38
2023-07-26T21:18:05.761Z,2.72
2023-07-26T21:20:32.510Z,2.58
2023-07-26T21:22:59.097Z,2.47
2023-07-26T21:25:25.623Z,3.22
2023-07-26T21:27:53.689Z,3.33
2023-07-26T21:30:20.645Z,8.07
2023-07-26T21:32:47.150Z,4.82
2023-07-26T21:35:13.665Z,2.30
2023-07-26T21:37:40.205Z,2.60
2023-07-26T21:40:07.409Z,2.75
2023-07-26T21:42:34.689Z,3.67
2023-07-26T21:45:01.459Z,2.50
2023-07-26T21:47:27.971Z,4.97
2023-07-26T21:49:54.474Z,2.25
2023-07-26T21:52:21.823Z,2.42
2023-07-26T21:54:48.292Z,3.33
2023-07-26T21:57:14.750Z,2.70
2023-07-26T21:59:41.242Z,2.70
2023-07-26T22:02:07.711Z,3.17
2023-07-26T22:04:34.289Z,3.80
2023-07-26T22:07:04.068Z,2.75
2023-07-26T22:09:32.846Z,4.10
2023-07-26T22:11:59.353Z,5.18
2023-07-26T22:14:25.845Z,2.40
2023-07-26T22:16:52.361Z,3.58
2023-07-26T22:19:18.863Z,4.22
2023-07-26T22:21:46.205Z,3.08
2023-07-26T22:24:13.125Z,2.55
2023-07-26T22:26:41.949Z,2.80
2023-07-26T22:29:08.426Z,3.78
2023-07-26T22:31:35.173Z,4.60
2023-07-26T22:34:01.981Z,3.65
2023-07-26T22:36:28.433Z,1.70
2023-07-26T22:38:55.011Z,3.67
2023-07-26T22:41:21.537Z,3.38
2023-07-26T22:43:48.104Z,3.10
2023-07-26T22:46:14.651Z,3.85
2023-07-26T22:48:43.193Z,4.50
2023-07-26T22:51:10.603Z,3.50
2023-07-26T22:53:37.143Z,2.22
2023-07-26T22:56:04.626Z,3.20
2023-07-26T22:58:31.097Z,3.38
2023-07-26T23:01:05.062Z,3.55
2023-07-26T23:03:32.073Z,4.35
2023-07-26T23:06:00.649Z,3.83
2023-07-26T23:08:28.617Z,4.32
2023-07-26T23:11:03.101Z,3.78
2023-07-26T23:13:32.142Z,3.35
2023-07-26T23:16:00.361Z,3.50
2023-07-26T23:18:27.442Z,3.42
2023-07-26T23:20:54.414Z,3.22
2023-07-26T23:23:22.532Z,2.47
2023-07-26T23:25:49.920Z,4.60
2023-07-26T23:28:17.167Z,4.45
2023-07-26T23:30:52.221Z,3.72
2023-07-26T23:33:20.194Z,2.88
2023-07-26T23:35:47.534Z,3.00
2023-07-26T23:38:14.748Z,2.83
2023-07-26T23:40:41.705Z,4.50
2023-07-26T23:43:09.880Z,6.10
2023-07-26T23:45:37.421Z,3.78
2023-07-26T23:48:04.353Z,4.85
2023-07-26T23:50:31.939Z,3.85
2023-07-26T23:52:58.460Z,3.63
2023-07-26T23:55:26.274Z,2.67
2023-07-26T23:57:53.715Z,5.63
